sensor_id;sensor_type;location;lat;lon;timestamp;pressure;altitude;pressure_sealevel;temperature;humidity
57000;BME280;42891;50.006;21.964;2023-01-27T00:01:50;99165.31;;;1.61;80.40
57000;BME280;42891;50.006;21.964;2023-01-27T00:05:51;99172.88;;;1.66;80.63
57000;BME280;42891;50.006;21.964;2023-01-27T00:09:51;99178.09;;;1.66;80.66
57000;BME280;42891;50.006;21.964;2023-01-27T00:13:51;99179.94;;;1.64;81.08
57000;BME280;42891;50.006;21.964;2023-01-27T00:17:52;99147.69;;;1.66;80.19
57000;BME280;42891;50.006;21.964;2023-01-27T00:21:52;99138.50;;;1.59;80.21
57000;BME280;42891;50.006;21.964;2023-01-27T00:26:15;99166.59;;;1.52;80.94
57000;BME280;42891;50.006;21.964;2023-01-27T00:30:16;99161.72;;;1.27;81.98
57000;BME280;42891;50.006;21.964;2023-01-27T00:34:17;99161.44;;;1.33;82.23
57000;BME280;42891;50.006;21.964;2023-01-27T00:38:17;99139.94;;;1.30;81.80
57000;BME280;42891;50.006;21.964;2023-01-27T00:42:17;99160.91;;;1.44;81.55
57000;BME280;42891;50.006;21.964;2023-01-27T00:46:19;99157.94;;;1.52;81.51
57000;BME280;42891;50.006;21.964;2023-01-27T00:50:20;99159.09;;;1.46;82.22
57000;BME280;42891;50.006;21.964;2023-01-27T00:54:20;99159.72;;;1.51;82.18
57000;BME280;42891;50.006;21.964;2023-01-27T00:58:21;99155.03;;;1.58;82.13
57000;BME280;42891;50.006;21.964;2023-01-27T01:02:21;99150.38;;;1.65;81.69
57000;BME280;42891;50.006;21.964;2023-01-27T01:06:21;99155.41;;;1.68;81.98
57000;BME280;42891;50.006;21.964;2023-01-27T01:10:22;99150.38;;;1.65;81.77
57000;BME280;42891;50.006;21.964;2023-01-27T01:14:22;99137.75;;;1.57;81.73
57000;BME280;42891;50.006;21.964;2023-01-27T01:18:23;99113.69;;;1.52;81.26
57000;BME280;42891;50.006;21.964;2023-01-27T01:22:23;99148.22;;;1.73;81.34
57000;BME280;42891;50.006;21.964;2023-01-27T01:26:23;99133.00;;;1.65;81.59
57000;BME280;42891;50.006;21.964;2023-01-27T01:30:24;99135.00;;;1.60;82.66
57000;BME280;42891;50.006;21.964;2023-01-27T01:34:26;99124.34;;;1.47;83.38
57000;BME280;42891;50.006;21.964;2023-01-27T01:38:26;99142.09;;;1.57;83.31
57000;BME280;42891;50.006;21.964;2023-01-27T01:43:00;99140.19;;;1.60;83.54
57000;BME280;42891;50.006;21.964;2023-01-27T01:47:01;99146.00;;;1.48;83.59
57000;BME280;42891;50.006;21.964;2023-01-27T01:55:14;99136.28;;;1.15;85.12
57000;BME280;42891;50.006;21.964;2023-01-27T01:59:43;99134.56;;;1.15;85.31
57000;BME280;42891;50.006;21.964;2023-01-27T02:03:47;99134.81;;;1.09;85.47
57000;BME280;42891;50.006;21.964;2023-01-27T02:08:07;99134.69;;;1.12;86.22
57000;BME280;42891;50.006;21.964;2023-01-27T02:12:08;99124.50;;;1.08;86.27
57000;BME280;42891;50.006;21.964;2023-01-27T02:16:10;99135.22;;;1.01;86.50
57000;BME280;42891;50.006;21.964;2023-01-27T02:20:20;99135.69;;;0.91;86.59
57000;BME280;42891;50.006;21.964;2023-01-27T02:24:30;99138.31;;;0.91;87.63
57000;BME280;42891;50.006;21.964;2023-01-27T02:28:33;99128.31;;;0.81;87.67
57000;BME280;42891;50.006;21.964;2023-01-27T02:32:33;99136.50;;;0.74;88.20
57000;BME280;42891;50.006;21.964;2023-01-27T02:36:46;99129.66;;;0.71;88.19
57000;BME280;42891;50.006;21.964;2023-01-27T02:40:49;99142.44;;;0.76;87.93
57000;BME280;42891;50.006;21.964;2023-01-27T02:44:52;99136.19;;;0.80;87.80
57000;BME280;42891;50.006;21.964;2023-01-27T02:48:53;99137.97;;;0.79;87.58
57000;BME280;42891;50.006;21.964;2023-01-27T02:52:53;99140.34;;;0.84;87.24
57000;BME280;42891;50.006;21.964;2023-01-27T02:56:54;99143.34;;;0.94;86.98
57000;BME280;42891;50.006;21.964;2023-01-27T03:00:54;99145.72;;;0.98;86.91
57000;BME280;42891;50.006;21.964;2023-01-27T03:04:55;99124.00;;;0.82;87.20
57000;BME280;42891;50.006;21.964;2023-01-27T03:08:56;99133.09;;;0.91;86.98
57000;BME280;42891;50.006;21.964;2023-01-27T03:12:56;99138.31;;;0.91;86.70
57000;BME280;42891;50.006;21.964;2023-01-27T03:16:56;99156.75;;;1.04;86.28
57000;BME280;42891;50.006;21.964;2023-01-27T03:21:16;99141.16;;;1.04;86.05
57000;BME280;42891;50.006;21.964;2023-01-27T03:25:17;99141.38;;;0.99;86.70
57000;BME280;42891;50.006;21.964;2023-01-27T03:29:17;99144.13;;;0.96;86.67
57000;BME280;42891;50.006;21.964;2023-01-27T03:33:36;99154.97;;;0.87;87.26
57000;BME280;42891;50.006;21.964;2023-01-27T03:37:42;99138.22;;;0.92;87.04
57000;BME280;42891;50.006;21.964;2023-01-27T03:42:01;99149.53;;;0.91;86.91
57000;BME280;42891;50.006;21.964;2023-01-27T03:46:20;99135.13;;;0.84;87.64
57000;BME280;42891;50.006;21.964;2023-01-27T03:50:21;99133.25;;;0.88;87.15
57000;BME280;42891;50.006;21.964;2023-01-27T03:54:36;99133.91;;;0.74;88.02
57000;BME280;42891;50.006;21.964;2023-01-27T03:58:37;99130.16;;;0.79;87.78
57000;BME280;42891;50.006;21.964;2023-01-27T04:02:37;99119.53;;;0.65;88.13
57000;BME280;42891;50.006;21.964;2023-01-27T04:06:56;99125.09;;;0.76;88.17
57000;BME280;42891;50.006;21.964;2023-01-27T04:11:03;99114.06;;;0.71;88.17
57000;BME280;42891;50.006;21.964;2023-01-27T04:15:22;99115.28;;;0.64;87.79
57000;BME280;42891;50.006;21.964;2023-01-27T04:19:22;99133.66;;;0.78;87.63
57000;BME280;42891;50.006;21.964;2023-01-27T04:23:23;99127.41;;;0.82;87.16
57000;BME280;42891;50.006;21.964;2023-01-27T04:27:23;99128.19;;;0.65;87.85
57000;BME280;42891;50.006;21.964;2023-01-27T04:31:23;99126.09;;;0.74;87.60
57000;BME280;42891;50.006;21.964;2023-01-27T04:35:24;99130.66;;;0.68;87.89
57000;BME280;42891;50.006;21.964;2023-01-27T04:39:25;99120.66;;;0.59;87.72
57000;BME280;42891;50.006;21.964;2023-01-27T04:43:25;99132.28;;;0.71;87.46
57000;BME280;42891;50.006;21.964;2023-01-27T04:47:25;99123.75;;;0.67;88.10
57000;BME280;42891;50.006;21.964;2023-01-27T04:51:26;99121.16;;;0.67;87.65
57000;BME280;42891;50.006;21.964;2023-01-27T04:55:26;99128.69;;;0.74;87.32
57000;BME280;42891;50.006;21.964;2023-01-27T04:59:26;99128.47;;;0.78;87.25
57000;BME280;42891;50.006;21.964;2023-01-27T05:03:27;99122.00;;;0.68;87.47
57000;BME280;42891;50.006;21.964;2023-01-27T05:07:27;99124.88;;;0.81;87.52
57000;BME280;42891;50.006;21.964;2023-01-27T05:11:27;99128.69;;;0.74;86.99
57000;BME280;42891;50.006;21.964;2023-01-27T05:15:28;99132.75;;;0.79;87.25
57000;BME280;42891;50.006;21.964;2023-01-27T05:19:29;99127.00;;;0.73;87.84
57000;BME280;42891;50.006;21.964;2023-01-27T05:23:29;99129.44;;;0.76;87.58
57000;BME280;42891;50.006;21.964;2023-01-27T05:27:35;99124.06;;;0.61;87.91
57000;BME280;42891;50.006;21.964;2023-01-27T05:31:36;99123.91;;;0.64;87.58
57000;BME280;42891;50.006;21.964;2023-01-27T05:35:36;99129.88;;;0.66;87.66
57000;BME280;42891;50.006;21.964;2023-01-27T05:39:36;99118.78;;;0.63;87.60
57000;BME280;42891;50.006;21.964;2023-01-27T05:43:38;99123.06;;;0.64;87.29
57000;BME280;42891;50.006;21.964;2023-01-27T05:47:39;99130.50;;;0.72;87.86
57000;BME280;42891;50.006;21.964;2023-01-27T05:51:39;99137.81;;;0.63;87.24
57000;BME280;42891;50.006;21.964;2023-01-27T05:55:42;99129.53;;;0.74;87.52
57000;BME280;42891;50.006;21.964;2023-01-27T05:59:42;99146.09;;;0.72;87.10
57000;BME280;42891;50.006;21.964;2023-01-27T06:03:43;99114.78;;;0.56;87.09
57000;BME280;42891;50.006;21.964;2023-01-27T06:07:44;99117.16;;;0.41;87.29
57000;BME280;42891;50.006;21.964;2023-01-27T06:11:44;99110.91;;;0.45;87.75
57000;BME280;42891;50.006;21.964;2023-01-27T06:15:45;99138.03;;;0.59;87.65
57000;BME280;42891;50.006;21.964;2023-01-27T06:19:46;99134.06;;;0.50;87.25
57000;BME280;42891;50.006;21.964;2023-01-27T06:23:46;99151.03;;;0.59;87.89
57000;BME280;42891;50.006;21.964;2023-01-27T06:27:46;99159.06;;;0.53;87.45
57000;BME280;42891;50.006;21.964;2023-01-27T06:31:47;99147.34;;;0.44;87.96
57000;BME280;42891;50.006;21.964;2023-01-27T06:35:48;99122.81;;;0.30;88.25
57000;BME280;42891;50.006;21.964;2023-01-27T06:39:48;99162.53;;;0.53;88.28
57000;BME280;42891;50.006;21.964;2023-01-27T06:43:48;99165.34;;;0.67;87.64
57000;BME280;42891;50.006;21.964;2023-01-27T06:47:59;99165.63;;;0.80;86.62
57000;BME280;42891;50.006;21.964;2023-01-27T06:52:00;99157.31;;;0.72;86.85
57000;BME280;42891;50.006;21.964;2023-01-27T06:56:00;99163.31;;;0.74;87.16
57000;BME280;42891;50.006;21.964;2023-01-27T07:00:01;99165.41;;;0.66;86.90
57000;BME280;42891;50.006;21.964;2023-01-27T07:04:02;99161.28;;;0.62;86.63
57000;BME280;42891;50.006;21.964;2023-01-27T07:08:02;99170.84;;;0.61;87.00
57000;BME280;42891;50.006;21.964;2023-01-27T07:12:02;99151.72;;;0.62;86.50
57000;BME280;42891;50.006;21.964;2023-01-27T07:16:03;99159.16;;;0.70;86.52
57000;BME280;42891;50.006;21.964;2023-01-27T07:20:04;99173.06;;;0.69;86.59
57000;BME280;42891;50.006;21.964;2023-01-27T07:24:05;99172.16;;;0.70;86.81
57000;BME280;42891;50.006;21.964;2023-01-27T07:28:05;99165.41;;;0.66;86.83
57000;BME280;42891;50.006;21.964;2023-01-27T07:32:06;99164.59;;;0.65;86.33
57000;BME280;42891;50.006;21.964;2023-01-27T07:36:06;99182.56;;;0.70;86.09
57000;BME280;42891;50.006;21.964;2023-01-27T07:40:08;99166.53;;;0.60;86.06
57000;BME280;42891;50.006;21.964;2023-01-27T07:44:09;99191.25;;;0.69;86.27
57000;BME280;42891;50.006;21.964;2023-01-27T07:48:09;99180.88;;;0.69;85.99
57000;BME280;42891;50.006;21.964;2023-01-27T07:52:11;99185.00;;;0.73;86.19
57000;BME280;42891;50.006;21.964;2023-01-27T07:56:11;99176.47;;;0.71;86.01
57000;BME280;42891;50.006;21.964;2023-01-27T08:00:12;99170.63;;;0.66;85.82
57000;BME280;42891;50.006;21.964;2023-01-27T08:04:14;99186.44;;;0.61;86.44
57000;BME280;42891;50.006;21.964;2023-01-27T08:08:14;99188.38;;;0.56;86.76
57000;BME280;42891;50.006;21.964;2023-01-27T08:12:15;99172.34;;;0.46;85.82
57000;BME280;42891;50.006;21.964;2023-01-27T08:16:15;99190.66;;;0.64;85.27
57000;BME280;42891;50.006;21.964;2023-01-27T08:20:16;99193.97;;;0.47;86.66
57000;BME280;42891;50.006;21.964;2023-01-27T08:24:18;99196.41;;;0.50;86.52
57000;BME280;42891;50.006;21.964;2023-01-27T08:28:19;99206.06;;;0.48;86.18
57000;BME280;42891;50.006;21.964;2023-01-27T08:32:20;99198.59;;;0.40;86.45
57000;BME280;42891;50.006;21.964;2023-01-27T08:36:21;99199.97;;;0.49;86.30
57000;BME280;42891;50.006;21.964;2023-01-27T08:40:22;99209.81;;;0.61;86.22
57000;BME280;42891;50.006;21.964;2023-01-27T08:44:22;99210.31;;;0.70;85.61
57000;BME280;42891;50.006;21.964;2023-01-27T08:48:23;99217.50;;;0.83;84.99
57000;BME280;42891;50.006;21.964;2023-01-27T08:52:24;99211.97;;;0.71;84.71
57000;BME280;42891;50.006;21.964;2023-01-27T08:56:26;99215.81;;;0.82;84.49
57000;BME280;42891;50.006;21.964;2023-01-27T09:00:27;99203.34;;;0.70;83.90
57000;BME280;42891;50.006;21.964;2023-01-27T09:04:27;99213.19;;;0.82;83.74
57000;BME280;42891;50.006;21.964;2023-01-27T09:08:29;99226.06;;;0.85;84.36
57000;BME280;42891;50.006;21.964;2023-01-27T09:12:29;99227.59;;;0.90;83.72
57000;BME280;42891;50.006;21.964;2023-01-27T09:16:29;99225.47;;;0.79;84.01
57000;BME280;42891;50.006;21.964;2023-01-27T09:20:30;99220.94;;;0.84;84.03
57000;BME280;42891;50.006;21.964;2023-01-27T09:24:31;99209.41;;;0.90;83.74
57000;BME280;42891;50.006;21.964;2023-01-27T09:28:31;99226.41;;;0.97;83.60
57000;BME280;42891;50.006;21.964;2023-01-27T09:32:31;99222.69;;;1.02;83.50
57000;BME280;42891;50.006;21.964;2023-01-27T09:36:37;99222.56;;;1.06;82.61
57000;BME280;42891;50.006;21.964;2023-01-27T09:40:53;99227.94;;;1.01;82.53
57000;BME280;42891;50.006;21.964;2023-01-27T09:45:17;99229.78;;;0.99;82.64
57000;BME280;42891;50.006;21.964;2023-01-27T09:54:16;99214.94;;;1.01;82.44
57000;BME280;42891;50.006;21.964;2023-01-27T09:58:36;99213.63;;;1.11;82.47
57000;BME280;42891;50.006;21.964;2023-01-27T10:12:05;99195.97;;;1.18;81.71
57000;BME280;42891;50.006;21.964;2023-01-27T10:20:43;99180.50;;;1.15;81.42
57000;BME280;42891;50.006;21.964;2023-01-27T10:29:23;99176.91;;;1.17;82.18
57000;BME280;42891;50.006;21.964;2023-01-27T10:46:09;99191.88;;;1.12;81.37
57000;BME280;42891;50.006;21.964;2023-01-27T10:50:33;99199.44;;;1.18;81.01
57000;BME280;42891;50.006;21.964;2023-01-27T10:58:59;99202.69;;;1.41;81.30
57000;BME280;42891;50.006;21.964;2023-01-27T11:03:10;99195.94;;;1.37;80.19
57000;BME280;42891;50.006;21.964;2023-01-27T11:07:17;99195.50;;;1.46;80.30
57000;BME280;42891;50.006;21.964;2023-01-27T11:11:20;99196.00;;;1.55;80.21
57000;BME280;42891;50.006;21.964;2023-01-27T11:15:41;99175.69;;;1.44;79.20
57000;BME280;42891;50.006;21.964;2023-01-27T11:23:58;99188.28;;;1.34;79.27
57000;BME280;42891;50.006;21.964;2023-01-27T11:28:37;99169.56;;;1.45;79.13
57000;BME280;42891;50.006;21.964;2023-01-27T11:32:56;99157.47;;;1.44;79.52
57000;BME280;42891;50.006;21.964;2023-01-27T11:37:06;99172.94;;;1.47;79.91
57000;BME280;42891;50.006;21.964;2023-01-27T11:41:13;99189.75;;;1.40;78.51
57000;BME280;42891;50.006;21.964;2023-01-27T11:45:16;99192.50;;;1.36;78.18
57000;BME280;42891;50.006;21.964;2023-01-27T11:49:24;99165.63;;;1.36;78.37
57000;BME280;42891;50.006;21.964;2023-01-27T11:53:28;99183.13;;;1.51;78.97
57000;BME280;42891;50.006;21.964;2023-01-27T11:57:40;99169.84;;;1.39;78.48
57000;BME280;42891;50.006;21.964;2023-01-27T12:06:13;99169.66;;;1.43;78.41
57000;BME280;42891;50.006;21.964;2023-01-27T12:10:28;99169.78;;;1.40;77.41
57000;BME280;42891;50.006;21.964;2023-01-27T12:14:29;99167.72;;;1.47;76.74
57000;BME280;42891;50.006;21.964;2023-01-27T12:18:34;99162.03;;;1.39;77.00
57000;BME280;42891;50.006;21.964;2023-01-27T12:22:55;99159.53;;;1.37;77.78
57000;BME280;42891;50.006;21.964;2023-01-27T12:26:58;99154.81;;;1.26;78.82
57000;BME280;42891;50.006;21.964;2023-01-27T12:31:09;99144.22;;;1.31;78.57
57000;BME280;42891;50.006;21.964;2023-01-27T12:35:20;99175.53;;;1.47;78.04
57000;BME280;42891;50.006;21.964;2023-01-27T12:43:56;99184.63;;;1.38;77.76
57000;BME280;42891;50.006;21.964;2023-01-27T12:52:02;99167.31;;;1.19;79.69
57000;BME280;42891;50.006;21.964;2023-01-27T13:00:13;99180.91;;;1.25;80.69
57000;BME280;42891;50.006;21.964;2023-01-27T13:04:21;99168.16;;;1.01;80.60
57000;BME280;42891;50.006;21.964;2023-01-27T13:08:24;99167.81;;;1.09;79.91
57000;BME280;42891;50.006;21.964;2023-01-27T13:12:28;99165.34;;;1.06;80.37
57000;BME280;42891;50.006;21.964;2023-01-27T13:16:29;99167.66;;;0.93;80.21
57000;BME280;42891;50.006;21.964;2023-01-27T13:20:41;99160.84;;;0.90;80.32
57000;BME280;42891;50.006;21.964;2023-01-27T13:24:46;99151.56;;;0.84;80.11
57000;BME280;42891;50.006;21.964;2023-01-27T13:32:58;99156.84;;;1.02;80.40
57000;BME280;42891;50.006;21.964;2023-01-27T13:37:19;99156.50;;;0.91;80.08
57000;BME280;42891;50.006;21.964;2023-01-27T13:50:27;99171.19;;;0.92;79.66
57000;BME280;42891;50.006;21.964;2023-01-27T13:54:31;99161.25;;;1.00;79.74
57000;BME280;42891;50.006;21.964;2023-01-27T14:03:13;99176.03;;;0.99;79.76
57000;BME280;42891;50.006;21.964;2023-01-27T14:11:38;99187.47;;;0.95;78.37
57000;BME280;42891;50.006;21.964;2023-01-27T14:16:03;99194.00;;;1.04;78.17
57000;BME280;42891;50.006;21.964;2023-01-27T14:28:51;99202.09;;;0.79;76.87
57000;BME280;42891;50.006;21.964;2023-01-27T14:33:33;99194.75;;;0.68;76.28
57000;BME280;42891;50.006;21.964;2023-01-27T14:37:50;99197.78;;;0.59;74.98
57000;BME280;42891;50.006;21.964;2023-01-27T14:50:38;99211.47;;;0.43;73.48
57000;BME280;42891;50.006;21.964;2023-01-27T14:59:10;99234.25;;;0.57;73.46
57000;BME280;42891;50.006;21.964;2023-01-27T15:03:22;99209.91;;;0.58;72.88
57000;BME280;42891;50.006;21.964;2023-01-27T15:16:14;99208.72;;;0.46;73.14
57000;BME280;42891;50.006;21.964;2023-01-27T15:20:29;99222.63;;;0.45;73.31
57000;BME280;42891;50.006;21.964;2023-01-27T15:24:55;99227.16;;;0.40;72.51
57000;BME280;42891;50.006;21.964;2023-01-27T15:28:57;99232.94;;;0.47;72.62
57000;BME280;42891;50.006;21.964;2023-01-27T15:32:57;99238.84;;;0.50;73.75
57000;BME280;42891;50.006;21.964;2023-01-27T15:37:01;99232.78;;;0.31;72.62
57000;BME280;42891;50.006;21.964;2023-01-27T15:41:09;99234.03;;;0.41;73.21
57000;BME280;42891;50.006;21.964;2023-01-27T15:45:34;99235.75;;;0.42;73.67
57000;BME280;42891;50.006;21.964;2023-01-27T15:49:39;99204.66;;;0.20;72.79
57000;BME280;42891;50.006;21.964;2023-01-27T15:53:45;99239.19;;;0.43;73.83
57000;BME280;42891;50.006;21.964;2023-01-27T15:57:51;99226.25;;;0.41;74.13
57000;BME280;42891;50.006;21.964;2023-01-27T16:02:14;99229.22;;;0.53;74.19
57000;BME280;42891;50.006;21.964;2023-01-27T16:06:17;99216.97;;;0.36;73.26
57000;BME280;42891;50.006;21.964;2023-01-27T16:10:22;99250.94;;;0.52;73.56
57000;BME280;42891;50.006;21.964;2023-01-27T16:18:25;99247.41;;;0.53;72.89
57000;BME280;42891;50.006;21.964;2023-01-27T16:22:27;99261.06;;;0.37;73.00
57000;BME280;42891;50.006;21.964;2023-01-27T16:26:53;99258.09;;;0.46;73.49
57000;BME280;42891;50.006;21.964;2023-01-27T16:31:25;99251.84;;;0.50;73.42
57000;BME280;42891;50.006;21.964;2023-01-27T16:35:31;99255.03;;;0.57;73.47
57000;BME280;42891;50.006;21.964;2023-01-27T16:39:40;99259.72;;;0.49;73.41
57000;BME280;42891;50.006;21.964;2023-01-27T16:43:47;99269.50;;;0.42;73.53
57000;BME280;42891;50.006;21.964;2023-01-27T16:48:11;99269.50;;;0.42;74.19
57000;BME280;42891;50.006;21.964;2023-01-27T16:52:21;99267.56;;;0.47;73.14
57000;BME280;42891;50.006;21.964;2023-01-27T16:56:26;99264.56;;;0.57;73.62
57000;BME280;42891;50.006;21.964;2023-01-27T17:00:29;99255.88;;;0.37;73.33
57000;BME280;42891;50.006;21.964;2023-01-27T17:04:31;99282.97;;;0.52;74.08
57000;BME280;42891;50.006;21.964;2023-01-27T17:08:32;99277.97;;;0.47;73.18
57000;BME280;42891;50.006;21.964;2023-01-27T17:12:41;99272.34;;;0.36;73.74
57000;BME280;42891;50.006;21.964;2023-01-27T17:16:45;99274.84;;;0.39;73.97
57000;BME280;42891;50.006;21.964;2023-01-27T17:20:46;99288.94;;;0.33;74.62
57000;BME280;42891;50.006;21.964;2023-01-27T17:24:52;99290.44;;;0.39;74.90
57000;BME280;42891;50.006;21.964;2023-01-27T17:28:54;99283.16;;;0.27;74.70
57000;BME280;42891;50.006;21.964;2023-01-27T17:32:56;99294.31;;;0.29;74.92
57000;BME280;42891;50.006;21.964;2023-01-27T17:37:14;99304.16;;;0.21;75.69
57000;BME280;42891;50.006;21.964;2023-01-27T17:41:33;99298.88;;;0.24;75.68
57000;BME280;42891;50.006;21.964;2023-01-27T17:45:34;99294.66;;;0.21;75.84
57000;BME280;42891;50.006;21.964;2023-01-27T17:49:37;99288.34;;;0.27;75.95
57000;BME280;42891;50.006;21.964;2023-01-27T17:53:40;99285.22;;;0.19;76.46
57000;BME280;42891;50.006;21.964;2023-01-27T17:57:42;99274.44;;;0.07;76.72
57000;BME280;42891;50.006;21.964;2023-01-27T18:01:44;99290.91;;;0.06;76.81
57000;BME280;42891;50.006;21.964;2023-01-27T18:05:46;99291.59;;;0.11;77.76
57000;BME280;42891;50.006;21.964;2023-01-27T18:09:52;99305.34;;;0.13;77.44
57000;BME280;42891;50.006;21.964;2023-01-27T18:13:53;99314.69;;;0.17;77.83
57000;BME280;42891;50.006;21.964;2023-01-27T18:18:00;99305.78;;;0.23;77.20
57000;BME280;42891;50.006;21.964;2023-01-27T18:22:12;99315.50;;;0.20;78.12
57000;BME280;42891;50.006;21.964;2023-01-27T18:26:30;99299.91;;;0.20;77.69
57000;BME280;42891;50.006;21.964;2023-01-27T18:30:31;99321.31;;;0.25;78.50
57000;BME280;42891;50.006;21.964;2023-01-27T18:34:34;99316.13;;;0.25;78.02
57000;BME280;42891;50.006;21.964;2023-01-27T18:38:45;99313.59;;;0.23;78.84
57000;BME280;42891;50.006;21.964;2023-01-27T18:42:50;99324.19;;;0.19;78.06
57000;BME280;42891;50.006;21.964;2023-01-27T18:46:54;99331.16;;;0.16;78.88
57000;BME280;42891;50.006;21.964;2023-01-27T18:51:00;99325.97;;;0.16;78.87
57000;BME280;42891;50.006;21.964;2023-01-27T18:55:19;99307.09;;;0.13;78.36
57000;BME280;42891;50.006;21.964;2023-01-27T18:59:20;99315.25;;;0.04;78.93
57000;BME280;42891;50.006;21.964;2023-01-27T19:03:22;99319.03;;;0.17;79.14
57000;BME280;42891;50.006;21.964;2023-01-27T19:07:23;99320.38;;;0.05;78.95
57000;BME280;42891;50.006;21.964;2023-01-27T19:11:23;99336.75;;;0.07;79.04
57000;BME280;42891;50.006;21.964;2023-01-27T19:15:25;99335.13;;;0.05;79.60
57000;BME280;42891;50.006;21.964;2023-01-27T19:19:25;99342.72;;;0.09;79.88
57000;BME280;42891;50.006;21.964;2023-01-27T19:23:26;99339.16;;;0.12;79.64
57000;BME280;42891;50.006;21.964;2023-01-27T19:27:26;99341.31;;;0.23;79.26
57000;BME280;42891;50.006;21.964;2023-01-27T19:31:27;99344.94;;;0.19;79.70
57000;BME280;42891;50.006;21.964;2023-01-27T19:35:29;99339.28;;;0.09;79.99
57000;BME280;42891;50.006;21.964;2023-01-27T19:39:32;99348.81;;;0.08;80.37
57000;BME280;42891;50.006;21.964;2023-01-27T19:43:33;99324.72;;;0.05;80.45
57000;BME280;42891;50.006;21.964;2023-01-27T19:47:33;99344.22;;;0.15;79.71
57000;BME280;42891;50.006;21.964;2023-01-27T19:55:45;99344.94;;;0.19;80.63
57000;BME280;42891;50.006;21.964;2023-01-27T19:59:46;99351.19;;;0.14;81.43
57000;BME280;42891;50.006;21.964;2023-01-27T20:03:46;99319.78;;;-0.02;80.97
57000;BME280;42891;50.006;21.964;2023-01-27T20:07:47;99342.41;;;0.17;81.01
57000;BME280;42891;50.006;21.964;2023-01-27T20:11:48;99356.66;;;0.29;80.92
57000;BME280;42891;50.006;21.964;2023-01-27T20:15:49;99331.78;;;0.23;80.71
57000;BME280;42891;50.006;21.964;2023-01-27T20:19:49;99353.28;;;0.27;80.77
57000;BME280;42891;50.006;21.964;2023-01-27T20:23:50;99346.44;;;0.24;80.04
57000;BME280;42891;50.006;21.964;2023-01-27T20:27:53;99351.50;;;0.27;80.75
57000;BME280;42891;50.006;21.964;2023-01-27T20:31:53;99349.34;;;0.16;80.37
57000;BME280;42891;50.006;21.964;2023-01-27T20:35:53;99348.50;;;0.16;80.88
57000;BME280;42891;50.006;21.964;2023-01-27T20:39:56;99344.69;;;0.25;80.68
57000;BME280;42891;50.006;21.964;2023-01-27T20:43:58;99351.72;;;0.23;80.65
57000;BME280;42891;50.006;21.964;2023-01-27T20:47:59;99353.41;;;0.24;80.38
57000;BME280;42891;50.006;21.964;2023-01-27T20:51:59;99330.81;;;0.04;80.82
57000;BME280;42891;50.006;21.964;2023-01-27T20:56:01;99362.22;;;0.20;81.07
57000;BME280;42891;50.006;21.964;2023-01-27T21:00:01;99352.44;;;0.04;80.59
57000;BME280;42891;50.006;21.964;2023-01-27T21:04:01;99356.31;;;0.16;80.67
57000;BME280;42891;50.006;21.964;2023-01-27T21:08:02;99344.28;;;-0.09;81.12
57000;BME280;42891;50.006;21.964;2023-01-27T21:12:02;99345.31;;;-0.13;80.42
57000;BME280;42891;50.006;21.964;2023-01-27T21:16:02;99345.09;;;-0.07;80.55
57000;BME280;42891;50.006;21.964;2023-01-27T21:20:03;99345.56;;;-0.19;80.15
57000;BME280;42891;50.006;21.964;2023-01-27T21:24:05;99326.91;;;-0.29;79.92
57000;BME280;42891;50.006;21.964;2023-01-27T21:28:05;99339.97;;;-0.32;80.49
57000;BME280;42891;50.006;21.964;2023-01-27T21:32:06;99353.91;;;-0.11;80.19
57000;BME280;42891;50.006;21.964;2023-01-27T21:36:07;99342.63;;;-0.33;80.29
57000;BME280;42891;50.006;21.964;2023-01-27T21:40:08;99358.97;;;-0.08;79.56
57000;BME280;42891;50.006;21.964;2023-01-27T21:44:18;99345.78;;;-0.25;79.53
57000;BME280;42891;50.006;21.964;2023-01-27T21:48:38;99359.25;;;-0.15;79.92
57000;BME280;42891;50.006;21.964;2023-01-27T21:52:43;99359.31;;;-0.17;80.22
57000;BME280;42891;50.006;21.964;2023-01-27T21:56:44;99345.19;;;-0.10;80.07
57000;BME280;42891;50.006;21.964;2023-01-27T22:00:44;99362.88;;;-0.20;80.25
57000;BME280;42891;50.006;21.964;2023-01-27T22:04:45;99360.25;;;-0.18;80.12
57000;BME280;42891;50.006;21.964;2023-01-27T22:08:48;99361.28;;;-0.24;80.35
57000;BME280;42891;50.006;21.964;2023-01-27T22:12:50;99352.25;;;-0.13;79.69
57000;BME280;42891;50.006;21.964;2023-01-27T22:16:54;99339.50;;;-0.20;79.60
57000;BME280;42891;50.006;21.964;2023-01-27T22:20:55;99353.28;;;-0.18;80.37
57000;BME280;42891;50.006;21.964;2023-01-27T22:24:55;99355.41;;;-0.05;79.84
57000;BME280;42891;50.006;21.964;2023-01-27T22:28:56;99357.19;;;-0.07;79.75
57000;BME280;42891;50.006;21.964;2023-01-27T22:32:56;99358.91;;;-0.06;79.78
57000;BME280;42891;50.006;21.964;2023-01-27T22:36:57;99354.84;;;-0.13;79.68
57000;BME280;42891;50.006;21.964;2023-01-27T22:40:57;99359.69;;;-0.04;79.90
57000;BME280;42891;50.006;21.964;2023-01-27T22:44:57;99346.75;;;-0.06;80.20
57000;BME280;42891;50.006;21.964;2023-01-27T22:48:58;99335.19;;;-0.19;79.86
57000;BME280;42891;50.006;21.964;2023-01-27T22:52:58;99358.22;;;-0.11;80.33
57000;BME280;42891;50.006;21.964;2023-01-27T22:56:58;99348.53;;;-0.06;80.05
57000;BME280;42891;50.006;21.964;2023-01-27T23:00:59;99352.13;;;-0.10;80.04
57000;BME280;42891;50.006;21.964;2023-01-27T23:04:59;99336.00;;;-0.19;80.38
57000;BME280;42891;50.006;21.964;2023-01-27T23:08:59;99363.78;;;-0.21;80.18
57000;BME280;42891;50.006;21.964;2023-01-27T23:13:00;99351.66;;;-0.20;79.89
57000;BME280;42891;50.006;21.964;2023-01-27T23:17:00;99352.53;;;-0.21;80.93
57000;BME280;42891;50.006;21.964;2023-01-27T23:21:05;99356.00;;;-0.21;80.54
57000;BME280;42891;50.006;21.964;2023-01-27T23:25:06;99351.38;;;-0.12;80.22
57000;BME280;42891;50.006;21.964;2023-01-27T23:29:07;99343.69;;;-0.15;80.41
57000;BME280;42891;50.006;21.964;2023-01-27T23:33:07;99350.00;;;-0.23;80.42
57000;BME280;42891;50.006;21.964;2023-01-27T23:37:07;99343.66;;;-0.38;81.35
57000;BME280;42891;50.006;21.964;2023-01-27T23:41:11;99346.22;;;-0.14;81.05